Andyville, Minnesota
Current Conditions -  °F | °C
As of 3:36 AM on Friday 28 Nov 2014 (Local Time) from KAUM Reporting Station
Broken Clouds Broken Clouds  
Wind Chill: -2°   Ceiling: 11000
Heat Index: 12°   Visibility: 10mi
Dew Point:   Wind: 12mph
Humidity: 73%   Direction: 140°SE
Pressure: 30.09"   Gusts: NA
Location:  43.7173°N, 92.9889°W
Report Text: KAUM 280936Z AUTO 14010KT 10SM BKN110 M11/M15 A3009 RMK AO2
Loading
Personal Weather Stations






























Interactive Weather Map New forecast layout! Learn more

10-Day Weather Forecast

Advertisements
Track Severe Weather on mobile